createdAt,value
2024-01-20T00:03:29.581Z,98193.91
2024-01-20T00:08:31.858Z,98198.09
2024-01-20T00:13:33.864Z,98203.97
2024-01-20T00:18:36.924Z,98201.28
2024-01-20T00:23:39.463Z,98189.03
2024-01-20T00:28:42.679Z,98195.56
2024-01-20T00:33:46.548Z,98195.22
2024-01-20T00:38:48.676Z,98203.22
2024-01-20T00:43:50.739Z,98203.56
2024-01-20T00:48:52.788Z,98208.66
2024-01-20T00:53:54.899Z,98201.13
2024-01-20T00:58:57.702Z,98205.19
2024-01-20T01:03:59.811Z,98223.56
2024-01-20T01:09:01.707Z,98226.88
2024-01-20T01:14:03.903Z,98220.19
2024-01-20T01:19:05.865Z,98226.03
2024-01-20T01:24:08.064Z,98239.09
2024-01-20T01:29:10.301Z,98238.88
2024-01-20T01:34:12.317Z,98247.31
2024-01-20T01:39:14.316Z,98253.06
2024-01-20T01:44:16.337Z,98264.09
2024-01-20T01:49:18.551Z,98277.88
2024-01-20T01:54:22.043Z,98272.53
2024-01-20T01:59:24.671Z,98279.53
2024-01-20T02:04:27.025Z,98277.88
2024-01-20T02:09:30.041Z,98263.31
2024-01-20T02:14:32.295Z,98262.66
2024-01-20T02:19:41.140Z,98254.75
2024-01-20T02:24:52.289Z,98263.56
2024-01-20T02:29:55.244Z,98251.78
2024-01-20T02:34:57.305Z,98239.09
2024-01-20T02:40:00.253Z,98261.41
2024-01-20T02:45:02.166Z,98283.25
2024-01-20T02:50:04.613Z,98267.16
2024-01-20T02:55:06.706Z,98256.16
2024-01-20T03:00:09.287Z,98262.41
2024-01-20T03:05:12.465Z,98264.94
2024-01-20T03:10:14.760Z,98262.56
2024-01-20T03:15:16.758Z,98274.25
2024-01-20T03:20:19.073Z,98277.31
2024-01-20T03:25:21.025Z,98275.22
2024-01-20T03:30:23.108Z,98279.91
2024-01-20T03:35:25.037Z,98279.13
2024-01-20T03:40:28.481Z,98294.88
2024-01-20T03:45:31.105Z,98306.34
2024-01-20T03:50:33.061Z,98302.69
2024-01-20T03:55:35.205Z,98303.88
2024-01-20T04:00:37.262Z,98311.81
2024-01-20T04:05:40.620Z,98312.50
2024-01-20T04:10:42.602Z,98330.84
2024-01-20T04:16:04.674Z,98319.63
2024-01-20T04:21:06.228Z,98319.41
2024-01-20T04:26:08.166Z,98328.81
2024-01-20T04:31:10.204Z,98327.09
2024-01-20T04:36:12.067Z,98330.53
2024-01-20T04:41:14.186Z,98330.47
2024-01-20T04:46:16.602Z,98337.91
2024-01-20T04:51:18.689Z,98341.16
2024-01-20T04:56:21.368Z,98349.16
2024-01-20T05:01:23.521Z,98358.69
2024-01-20T05:06:26.151Z,98359.44
2024-01-20T05:11:28.070Z,98374.75
2024-01-20T05:16:29.968Z,98386.16
2024-01-20T05:21:32.011Z,98397.69
2024-01-20T05:26:34.438Z,98401.53
2024-01-20T05:31:36.302Z,98394.81
2024-01-20T05:36:38.265Z,98402.69
2024-01-20T05:41:40.187Z,98409.72
2024-01-20T05:46:42.279Z,98411.41
2024-01-20T05:51:44.362Z,98417.28
2024-01-20T05:56:46.745Z,98418.44
2024-01-20T06:01:51.538Z,98417.72
2024-01-20T06:06:53.737Z,98425.75
2024-01-20T06:11:55.560Z,98421.97
2024-01-20T06:16:57.461Z,98433.94
2024-01-20T06:21:59.417Z,98442.22
2024-01-20T06:27:01.552Z,98464.00
2024-01-20T06:32:03.453Z,98463.88
2024-01-20T06:37:06.212Z,98456.41
2024-01-20T06:42:11.428Z,98461.16
2024-01-20T06:47:13.428Z,98461.72
2024-01-20T06:52:15.297Z,98464.53
2024-01-20T06:57:17.200Z,98467.94
2024-01-20T07:02:19.224Z,98460.91
2024-01-20T07:07:21.005Z,98477.50
2024-01-20T07:12:22.858Z,98482.94
2024-01-20T07:17:24.800Z,98483.09
2024-01-20T07:22:26.707Z,98494.06
2024-01-20T07:27:28.972Z,98490.81
2024-01-20T07:32:31.456Z,98499.69
2024-01-20T07:37:37.081Z,98505.03
2024-01-20T07:42:41.302Z,98522.03
2024-01-20T07:47:43.225Z,98531.16
2024-01-20T07:52:46.115Z,98533.66
2024-01-20T07:57:48.481Z,98528.88
2024-01-20T08:02:50.536Z,98548.00
2024-01-20T08:07:52.455Z,98552.81
2024-01-20T08:12:54.316Z,98560.94
2024-01-20T08:17:56.418Z,98550.81
2024-01-20T08:22:58.372Z,98541.22
2024-01-20T08:28:00.314Z,98541.75
2024-01-20T08:33:04.435Z,98556.13
2024-01-20T08:38:07.248Z,98567.88
2024-01-20T08:43:09.306Z,98570.94
2024-01-20T08:48:11.568Z,98562.56
2024-01-20T08:53:15.571Z,98566.59
2024-01-20T08:58:17.415Z,98564.25
2024-01-20T09:03:21.047Z,98573.78
2024-01-20T09:08:23.092Z,98586.28
2024-01-20T09:13:25.441Z,98594.56
2024-01-20T09:18:27.360Z,98597.88
2024-01-20T09:23:29.561Z,98609.34
2024-01-20T09:28:31.419Z,98597.38
2024-01-20T09:33:33.764Z,98585.09
2024-01-20T09:38:35.624Z,98591.41
2024-01-20T09:43:39.827Z,98593.81
2024-01-20T09:48:44.519Z,98597.13
2024-01-20T09:53:49.248Z,98600.41
2024-01-20T09:58:52.689Z,98595.78
2024-01-20T10:04:01.488Z,98600.75
2024-01-20T10:09:04.316Z,98591.16
2024-01-20T10:14:07.544Z,98588.38
2024-01-20T10:19:09.518Z,98597.69
2024-01-20T10:24:11.837Z,98592.66
2024-01-20T10:29:14.291Z,98595.09
2024-01-20T10:34:16.230Z,98612.97
2024-01-20T10:39:21.136Z,98612.00
2024-01-20T10:44:28.898Z,98604.66
2024-01-20T10:49:30.865Z,98602.34
2024-01-20T10:54:33.918Z,98596.31
2024-01-20T10:59:40.959Z,98593.34
2024-01-20T11:04:45.949Z,98592.69
2024-01-20T11:09:58.424Z,98600.78
2024-01-20T11:15:01.159Z,98592.75
2024-01-20T11:20:08.433Z,98597.81
2024-01-20T11:25:11.787Z,98608.06
2024-01-20T11:30:15.717Z,98599.84
2024-01-20T11:35:19.077Z,98601.69
2024-01-20T11:40:21.057Z,98596.47
2024-01-20T11:45:22.985Z,98587.03
2024-01-20T11:50:24.834Z,98582.25
2024-01-20T11:55:27.388Z,98573.13
2024-01-20T12:00:29.458Z,98567.00
2024-01-20T12:05:31.566Z,98551.44
2024-01-20T12:10:34.111Z,98530.72
2024-01-20T12:15:36.667Z,98535.72
2024-01-20T12:20:38.900Z,98545.75
2024-01-20T12:25:41.080Z,98541.25
2024-01-20T12:30:43.208Z,98535.06
2024-01-20T12:35:45.926Z,98527.59
2024-01-20T12:40:48.336Z,98516.66
2024-01-20T12:45:50.282Z,98517.22
2024-01-20T12:50:52.619Z,98519.56
2024-01-20T12:55:54.496Z,98509.75
2024-01-20T13:00:56.361Z,98500.88
2024-01-20T13:05:58.337Z,98509.28
2024-01-20T13:11:00.335Z,98501.09
2024-01-20T13:16:02.243Z,98501.28
2024-01-20T13:21:04.310Z,98490.78
2024-01-20T13:26:06.606Z,98483.38
2024-01-20T13:31:08.597Z,98490.56
2024-01-20T13:36:10.538Z,98477.25
2024-01-20T13:41:12.517Z,98479.44
2024-01-20T13:46:14.744Z,98472.19
2024-01-20T13:51:18.697Z,98477.22
2024-01-20T13:56:22.196Z,98467.91
2024-01-20T14:01:24.869Z,98469.69
2024-01-20T14:06:26.802Z,98473.97
2024-01-20T14:11:28.914Z,98474.25
2024-01-20T14:16:31.602Z,98469.28
2024-01-20T14:21:34.203Z,98475.16
2024-01-20T14:26:36.183Z,98467.44
2024-01-20T14:31:49.010Z,98468.44
2024-01-20T14:36:53.851Z,98475.53
2024-01-20T14:41:55.722Z,98483.34
2024-01-20T14:46:57.616Z,98490.75
2024-01-20T14:51:59.437Z,98496.72
2024-01-20T14:57:01.358Z,98503.03
2024-01-20T15:02:05.352Z,98507.13
2024-01-20T15:07:08.142Z,98505.81
2024-01-20T15:12:10.041Z,98509.16
2024-01-20T15:17:13.475Z,98508.19
2024-01-20T15:22:15.601Z,98509.78
2024-01-20T15:27:18.901Z,98510.00
2024-01-20T15:32:20.876Z,98521.34
2024-01-20T15:37:23.061Z,98531.75
2024-01-20T15:42:24.924Z,98537.97
2024-01-20T15:47:26.844Z,98528.59
2024-01-20T15:52:29.084Z,98533.38
2024-01-20T15:57:31.333Z,98535.94
2024-01-20T16:02:33.796Z,98534.44
2024-01-20T16:07:35.780Z,98533.81
2024-01-20T16:12:37.820Z,98542.78
2024-01-20T16:17:42.087Z,98548.84
2024-01-20T16:22:44.373Z,98557.44
2024-01-20T16:27:46.569Z,98556.94
2024-01-20T16:32:48.623Z,98546.66
2024-01-20T16:38:16.383Z,98554.75
2024-01-20T16:43:18.830Z,98563.16
2024-01-20T16:48:20.860Z,98560.31
2024-01-20T16:53:23.098Z,98566.16
2024-01-20T16:58:24.926Z,98566.47
2024-01-20T17:03:26.829Z,98561.94
2024-01-20T17:08:28.867Z,98565.25
2024-01-20T17:13:31.020Z,98584.22
2024-01-20T17:18:33.800Z,98584.56
2024-01-20T17:23:36.006Z,98582.69
2024-01-20T17:28:37.944Z,98588.53
2024-01-20T17:33:40.058Z,98590.91
2024-01-20T17:38:41.983Z,98591.91
2024-01-20T17:43:45.441Z,98592.78
2024-01-20T17:48:47.479Z,98598.59
2024-01-20T17:53:49.320Z,98595.69
2024-01-20T17:58:51.290Z,98581.38
2024-01-20T18:03:53.377Z,98588.34
2024-01-20T18:08:57.592Z,98589.00
2024-01-20T18:13:59.778Z,98594.63
2024-01-20T18:19:01.622Z,98608.28
2024-01-20T18:24:05.322Z,98602.25
2024-01-20T18:29:07.318Z,98612.00
2024-01-20T18:34:09.392Z,98613.31
2024-01-20T18:39:11.737Z,98604.72
2024-01-20T18:44:15.719Z,98607.50
2024-01-20T18:49:18.502Z,98611.81
2024-01-20T18:54:20.366Z,98602.00
2024-01-20T18:59:22.374Z,98606.94
2024-01-20T19:04:24.442Z,98611.84
2024-01-20T19:09:27.136Z,98612.53
2024-01-20T19:14:29.151Z,98622.66
2024-01-20T19:19:32.917Z,98619.25
2024-01-20T19:24:35.817Z,98602.72
2024-01-20T19:29:37.829Z,98609.22
2024-01-20T19:34:40.160Z,98610.16
2024-01-20T19:39:44.162Z,98604.78
2024-01-20T19:44:48.336Z,98603.72
2024-01-20T19:49:54.312Z,98592.16
2024-01-20T19:54:56.303Z,98583.81
2024-01-20T19:59:58.240Z,98574.31
2024-01-20T20:05:00.744Z,98569.56
2024-01-20T20:10:02.721Z,98572.41
2024-01-20T20:15:05.626Z,98564.03
2024-01-20T20:20:08.253Z,98551.41
2024-01-20T20:25:10.493Z,98546.41
2024-01-20T20:30:12.582Z,98540.31
2024-01-20T20:35:15.615Z,98536.06
2024-01-20T20:40:17.982Z,98535.91
2024-01-20T20:45:20.361Z,98539.22
2024-01-20T20:50:22.299Z,98534.69
2024-01-20T20:55:24.450Z,98540.34
2024-01-20T21:00:26.245Z,98536.81
2024-01-20T21:05:28.139Z,98543.50
2024-01-20T21:10:30.006Z,98553.53
2024-01-20T21:15:33.525Z,98542.19
2024-01-20T21:20:36.594Z,98546.53
2024-01-20T21:25:38.613Z,98541.59
2024-01-20T21:30:40.506Z,98549.25
2024-01-20T21:35:42.568Z,98541.06
2024-01-20T21:40:47.514Z,98551.66
2024-01-20T21:45:50.093Z,98547.19
2024-01-20T21:50:52.029Z,98548.72
2024-01-20T21:55:53.882Z,98552.94
2024-01-20T22:00:56.000Z,98545.97
2024-01-20T22:05:58.194Z,98551.72
2024-01-20T22:11:00.021Z,98555.31
2024-01-20T22:16:01.965Z,98555.25
2024-01-20T22:21:04.995Z,98545.34
2024-01-20T22:26:10.492Z,98539.84
2024-01-20T22:31:12.512Z,98551.44
2024-01-20T22:36:14.597Z,98547.41
2024-01-20T22:41:17.854Z,98545.41
2024-01-20T22:46:19.726Z,98550.16
2024-01-20T22:51:23.154Z,98552.56
2024-01-20T22:56:25.286Z,98549.56
2024-01-20T23:01:27.176Z,98548.34
2024-01-20T23:06:29.190Z,98548.31
2024-01-20T23:11:31.357Z,98537.09
2024-01-20T23:16:33.260Z,98529.16
2024-01-20T23:21:35.246Z,98535.38
2024-01-20T23:26:43.000Z,98521.97
2024-01-20T23:31:45.582Z,98519.94
2024-01-20T23:36:47.647Z,98514.91
2024-01-20T23:41:49.800Z,98504.22
2024-01-20T23:46:51.805Z,98504.78
2024-01-20T23:51:54.578Z,98497.97
2024-01-20T23:56:57.423Z,98497.19
